Overview Statistics Trail Chart Weather Telemetry Raw packets
 

This is the latest recevied weather packets stored in our database for station/object KE8WMS. If no packets are shown the sender has not sent any weather packets the latest 10 day(s).

<< 69 70 71 72 73 74 75 >>
Time Temp. Humidity Pressure Rain* Wind** Luminosity Snow
1777355006 19.44° C 52% 1006.6 hPa 0 mm - 0 W/m² -
1777354701 19.44° C 51% 1006.6 hPa 0 mm - 0 W/m² -
1777354397 19.44° C 52% 1006.6 hPa 0 mm - 0 W/m² -
1777354095 18.89° C 55% 1006.3 hPa 0 mm - 0 W/m² -
1777353791 18.33° C 55% 1006.3 hPa 0 mm - 0 W/m² -
1777353489 18.89° C 55% 1005.8 hPa 0 mm - 0 W/m² -
1777353187 19.44° C 51% 1006 hPa 0 mm - 0 W/m² -
1777352884 19.44° C 49% 1005.8 hPa 0 mm - 0 W/m² -
1777352583 20° C 47% 1005.5 hPa 0 mm - 0 W/m² -
1777352280 20° C 48% 1005.2 hPa 0 mm - 0 W/m² -
1777351977 19.44° C 47% 1004.7 hPa 0 mm - 0 W/m² -
1777351674 18.89° C 50% 1004.1 hPa 0 mm - 0 W/m² -
1777351372 18.89° C 53% 1004.3 hPa 0 mm - 0 W/m² -
1777351072 19.44° C 51% 1004.5 hPa 0 mm - 0 W/m² -
1777350769 20° C 49% 1004.9 hPa 0 mm - 0 W/m² -
1777350464 20° C 48% 1004.9 hPa 0 mm - 0 W/m² -
1777350162 19.44° C 48% 1004.8 hPa 0 mm - 0 W/m² -
1777349859 20° C 47% 1004.6 hPa 0 mm - 0 W/m² -
1777349556 19.44° C 48% 1004.6 hPa 0 mm - 0 W/m² -
1777349254 20° C 48% 1004.7 hPa 0 mm - 0 W/m² -
1777348952 20° C 48% 1004.7 hPa 0 mm - 0 W/m² -
1777348649 20° C 46% 1005 hPa 0 mm - 0 W/m² -
1777348346 20° C 48% 1004.9 hPa 0 mm - 0 W/m² -
1777348044 20° C 47% 1004.7 hPa 0 mm - 0 W/m² -
1777347743 20° C 46% 1004.9 hPa 0 mm - 0 W/m² -

* Rain latest hour (hover to see other rain measurements)
** Current wind speed in m/s (hover to see current wind gust speed)